sensor_id;sensor_type;location;lat;lon;timestamp;P1;durP1;ratioP1;P2;durP2;ratioP2
6348;SDS011;3207;42.648;23.406;2023-03-26T00:00:20;16.20;;;11.90;;
6348;SDS011;3207;42.648;23.406;2023-03-26T00:02:47;15.67;;;12.30;;
6348;SDS011;3207;42.648;23.406;2023-03-26T00:05:14;18.93;;;12.00;;
6348;SDS011;3207;42.648;23.406;2023-03-26T00:07:42;18.10;;;12.60;;
6348;SDS011;3207;42.648;23.406;2023-03-26T00:10:10;18.63;;;12.70;;
6348;SDS011;3207;42.648;23.406;2023-03-26T00:12:37;14.27;;;12.17;;
6348;SDS011;3207;42.648;23.406;2023-03-26T00:15:04;19.27;;;13.27;;
6348;SDS011;3207;42.648;23.406;2023-03-26T00:17:34;26.40;;;15.60;;
6348;SDS011;3207;42.648;23.406;2023-03-26T00:20:01;18.90;;;13.67;;
6348;SDS011;3207;42.648;23.406;2023-03-26T00:22:29;20.33;;;14.40;;
6348;SDS011;3207;42.648;23.406;2023-03-26T00:24:57;19.53;;;15.33;;
6348;SDS011;3207;42.648;23.406;2023-03-26T00:27:25;23.83;;;15.47;;
6348;SDS011;3207;42.648;23.406;2023-03-26T00:29:53;22.57;;;14.63;;
6348;SDS011;3207;42.648;23.406;2023-03-26T00:32:21;20.07;;;14.73;;
6348;SDS011;3207;42.648;23.406;2023-03-26T00:34:51;16.13;;;11.90;;
6348;SDS011;3207;42.648;23.406;2023-03-26T00:37:19;15.60;;;11.67;;
6348;SDS011;3207;42.648;23.406;2023-03-26T00:39:51;15.27;;;11.20;;
6348;SDS011;3207;42.648;23.406;2023-03-26T00:42:19;13.83;;;10.57;;
6348;SDS011;3207;42.648;23.406;2023-03-26T00:44:46;17.93;;;11.60;;
6348;SDS011;3207;42.648;23.406;2023-03-26T00:47:15;17.40;;;12.47;;
6348;SDS011;3207;42.648;23.406;2023-03-26T00:49:42;17.37;;;10.87;;
6348;SDS011;3207;42.648;23.406;2023-03-26T00:52:11;15.20;;;10.33;;
6348;SDS011;3207;42.648;23.406;2023-03-26T00:54:38;12.80;;;8.23;;
6348;SDS011;3207;42.648;23.406;2023-03-26T00:57:05;10.03;;;8.20;;
6348;SDS011;3207;42.648;23.406;2023-03-26T00:59:35;10.83;;;7.83;;
6348;SDS011;3207;42.648;23.406;2023-03-26T01:02:03;10.63;;;6.53;;
6348;SDS011;3207;42.648;23.406;2023-03-26T01:04:31;12.37;;;7.27;;
6348;SDS011;3207;42.648;23.406;2023-03-26T01:07:00;14.17;;;10.77;;
6348;SDS011;3207;42.648;23.406;2023-03-26T01:09:31;9.97;;;7.83;;
6348;SDS011;3207;42.648;23.406;2023-03-26T01:12:01;10.63;;;7.17;;
6348;SDS011;3207;42.648;23.406;2023-03-26T01:14:31;9.27;;;6.87;;
6348;SDS011;3207;42.648;23.406;2023-03-26T01:16:59;9.10;;;7.13;;
6348;SDS011;3207;42.648;23.406;2023-03-26T01:19:28;10.20;;;8.30;;
6348;SDS011;3207;42.648;23.406;2023-03-26T01:22:02;10.90;;;8.33;;
6348;SDS011;3207;42.648;23.406;2023-03-26T01:24:31;9.90;;;8.13;;
6348;SDS011;3207;42.648;23.406;2023-03-26T01:27:13;8.63;;;7.73;;
6348;SDS011;3207;42.648;23.406;2023-03-26T01:29:49;12.00;;;8.60;;
6348;SDS011;3207;42.648;23.406;2023-03-26T01:32:35;13.23;;;9.20;;
6348;SDS011;3207;42.648;23.406;2023-03-26T01:35:14;10.67;;;8.37;;
6348;SDS011;3207;42.648;23.406;2023-03-26T01:37:51;15.60;;;10.67;;
6348;SDS011;3207;42.648;23.406;2023-03-26T01:40:27;13.70;;;11.10;;
6348;SDS011;3207;42.648;23.406;2023-03-26T01:43:07;12.83;;;10.03;;
6348;SDS011;3207;42.648;23.406;2023-03-26T01:45:38;11.87;;;9.77;;
6348;SDS011;3207;42.648;23.406;2023-03-26T01:48:07;14.80;;;10.83;;
6348;SDS011;3207;42.648;23.406;2023-03-26T01:50:34;12.30;;;9.83;;
6348;SDS011;3207;42.648;23.406;2023-03-26T01:53:01;15.73;;;10.77;;
6348;SDS011;3207;42.648;23.406;2023-03-26T01:55:32;13.00;;;10.73;;
6348;SDS011;3207;42.648;23.406;2023-03-26T01:58:06;11.57;;;10.17;;
6348;SDS011;3207;42.648;23.406;2023-03-26T02:00:38;14.27;;;9.57;;
6348;SDS011;3207;42.648;23.406;2023-03-26T02:03:18;9.07;;;7.20;;
6348;SDS011;3207;42.648;23.406;2023-03-26T02:05:52;7.50;;;6.77;;
6348;SDS011;3207;42.648;23.406;2023-03-26T02:08:23;7.97;;;7.17;;
6348;SDS011;3207;42.648;23.406;2023-03-26T02:11:01;9.50;;;7.17;;
6348;SDS011;3207;42.648;23.406;2023-03-26T02:13:34;10.30;;;7.50;;
6348;SDS011;3207;42.648;23.406;2023-03-26T02:16:02;9.07;;;6.63;;
6348;SDS011;3207;42.648;23.406;2023-03-26T02:18:31;11.80;;;6.50;;
6348;SDS011;3207;42.648;23.406;2023-03-26T02:21:03;9.70;;;7.03;;
6348;SDS011;3207;42.648;23.406;2023-03-26T02:23:34;9.20;;;7.20;;
6348;SDS011;3207;42.648;23.406;2023-03-26T02:26:03;9.77;;;7.50;;
6348;SDS011;3207;42.648;23.406;2023-03-26T02:28:31;8.57;;;6.33;;
6348;SDS011;3207;42.648;23.406;2023-03-26T02:30:58;7.83;;;6.63;;
6348;SDS011;3207;42.648;23.406;2023-03-26T02:33:27;11.67;;;7.40;;
6348;SDS011;3207;42.648;23.406;2023-03-26T02:35:54;9.93;;;7.63;;
6348;SDS011;3207;42.648;23.406;2023-03-26T02:38:23;8.50;;;7.43;;
6348;SDS011;3207;42.648;23.406;2023-03-26T02:40:51;10.90;;;8.17;;
6348;SDS011;3207;42.648;23.406;2023-03-26T02:43:20;9.77;;;6.77;;
6348;SDS011;3207;42.648;23.406;2023-03-26T02:45:47;10.40;;;7.47;;
6348;SDS011;3207;42.648;23.406;2023-03-26T02:48:13;11.70;;;7.23;;
6348;SDS011;3207;42.648;23.406;2023-03-26T02:50:40;12.50;;;8.67;;
6348;SDS011;3207;42.648;23.406;2023-03-26T02:53:07;13.30;;;8.90;;
6348;SDS011;3207;42.648;23.406;2023-03-26T02:55:35;13.10;;;9.40;;
6348;SDS011;3207;42.648;23.406;2023-03-26T02:58:02;15.20;;;9.63;;
6348;SDS011;3207;42.648;23.406;2023-03-26T03:00:31;14.27;;;9.50;;
6348;SDS011;3207;42.648;23.406;2023-03-26T03:02:58;11.30;;;8.57;;
6348;SDS011;3207;42.648;23.406;2023-03-26T03:05:28;10.13;;;8.90;;
6348;SDS011;3207;42.648;23.406;2023-03-26T03:07:55;12.57;;;9.23;;
6348;SDS011;3207;42.648;23.406;2023-03-26T03:10:23;10.87;;;8.70;;
6348;SDS011;3207;42.648;23.406;2023-03-26T03:12:50;10.93;;;8.17;;
6348;SDS011;3207;42.648;23.406;2023-03-26T03:15:17;11.17;;;8.40;;
6348;SDS011;3207;42.648;23.406;2023-03-26T03:17:45;13.17;;;9.13;;
6348;SDS011;3207;42.648;23.406;2023-03-26T03:20:12;13.67;;;9.83;;
6348;SDS011;3207;42.648;23.406;2023-03-26T03:22:39;8.87;;;7.87;;
6348;SDS011;3207;42.648;23.406;2023-03-26T03:25:07;14.93;;;8.37;;
6348;SDS011;3207;42.648;23.406;2023-03-26T03:27:38;10.53;;;8.87;;
6348;SDS011;3207;42.648;23.406;2023-03-26T03:30:07;10.87;;;8.53;;
6348;SDS011;3207;42.648;23.406;2023-03-26T03:32:35;10.20;;;7.57;;
6348;SDS011;3207;42.648;23.406;2023-03-26T03:35:03;12.70;;;9.00;;
6348;SDS011;3207;42.648;23.406;2023-03-26T03:37:31;13.03;;;8.40;;
6348;SDS011;3207;42.648;23.406;2023-03-26T03:39:58;9.70;;;7.63;;
6348;SDS011;3207;42.648;23.406;2023-03-26T03:42:25;11.77;;;8.57;;
6348;SDS011;3207;42.648;23.406;2023-03-26T03:44:52;11.73;;;8.37;;
6348;SDS011;3207;42.648;23.406;2023-03-26T03:47:19;12.40;;;8.83;;
6348;SDS011;3207;42.648;23.406;2023-03-26T03:49:47;12.70;;;9.10;;
6348;SDS011;3207;42.648;23.406;2023-03-26T03:52:15;18.37;;;9.13;;
6348;SDS011;3207;42.648;23.406;2023-03-26T03:54:43;11.80;;;9.13;;
6348;SDS011;3207;42.648;23.406;2023-03-26T03:57:10;12.23;;;9.20;;
6348;SDS011;3207;42.648;23.406;2023-03-26T03:59:38;13.07;;;8.60;;
6348;SDS011;3207;42.648;23.406;2023-03-26T04:02:04;10.27;;;9.00;;
6348;SDS011;3207;42.648;23.406;2023-03-26T04:04:31;12.47;;;8.23;;
6348;SDS011;3207;42.648;23.406;2023-03-26T04:06:58;9.83;;;8.10;;
6348;SDS011;3207;42.648;23.406;2023-03-26T04:09:26;8.80;;;6.70;;
6348;SDS011;3207;42.648;23.406;2023-03-26T04:11:53;9.83;;;6.93;;
6348;SDS011;3207;42.648;23.406;2023-03-26T04:14:20;7.33;;;6.27;;
6348;SDS011;3207;42.648;23.406;2023-03-26T04:16:47;9.97;;;7.10;;
6348;SDS011;3207;42.648;23.406;2023-03-26T04:19:14;7.70;;;6.60;;
6348;SDS011;3207;42.648;23.406;2023-03-26T04:21:41;6.90;;;6.20;;
6348;SDS011;3207;42.648;23.406;2023-03-26T04:24:08;6.67;;;5.87;;
6348;SDS011;3207;42.648;23.406;2023-03-26T04:26:36;10.80;;;6.10;;
6348;SDS011;3207;42.648;23.406;2023-03-26T04:29:04;10.93;;;6.33;;
6348;SDS011;3207;42.648;23.406;2023-03-26T04:31:36;6.70;;;5.73;;
6348;SDS011;3207;42.648;23.406;2023-03-26T04:34:05;10.17;;;6.43;;
6348;SDS011;3207;42.648;23.406;2023-03-26T04:36:38;7.03;;;5.93;;
6348;SDS011;3207;42.648;23.406;2023-03-26T04:39:08;7.87;;;6.87;;
6348;SDS011;3207;42.648;23.406;2023-03-26T04:41:38;7.53;;;6.30;;
6348;SDS011;3207;42.648;23.406;2023-03-26T04:44:05;6.97;;;6.17;;
6348;SDS011;3207;42.648;23.406;2023-03-26T04:46:32;8.63;;;5.97;;
6348;SDS011;3207;42.648;23.406;2023-03-26T04:48:59;10.23;;;5.63;;
6348;SDS011;3207;42.648;23.406;2023-03-26T04:51:28;8.17;;;6.03;;
6348;SDS011;3207;42.648;23.406;2023-03-26T04:54:02;7.40;;;5.83;;
6348;SDS011;3207;42.648;23.406;2023-03-26T04:56:33;9.30;;;5.80;;
6348;SDS011;3207;42.648;23.406;2023-03-26T04:59:08;10.17;;;5.93;;
6348;SDS011;3207;42.648;23.406;2023-03-26T05:01:39;8.73;;;6.00;;
6348;SDS011;3207;42.648;23.406;2023-03-26T05:04:06;7.93;;;6.00;;
6348;SDS011;3207;42.648;23.406;2023-03-26T05:06:33;8.77;;;5.40;;
6348;SDS011;3207;42.648;23.406;2023-03-26T05:09:02;6.50;;;5.20;;
6348;SDS011;3207;42.648;23.406;2023-03-26T05:11:29;7.47;;;5.17;;
6348;SDS011;3207;42.648;23.406;2023-03-26T05:13:57;5.73;;;4.63;;
6348;SDS011;3207;42.648;23.406;2023-03-26T05:16:24;6.50;;;5.10;;
6348;SDS011;3207;42.648;23.406;2023-03-26T05:18:51;6.40;;;4.90;;
6348;SDS011;3207;42.648;23.406;2023-03-26T05:21:18;6.20;;;5.07;;
6348;SDS011;3207;42.648;23.406;2023-03-26T05:23:45;6.60;;;5.13;;
6348;SDS011;3207;42.648;23.406;2023-03-26T05:26:12;7.80;;;5.10;;
6348;SDS011;3207;42.648;23.406;2023-03-26T05:28:39;7.30;;;5.30;;
6348;SDS011;3207;42.648;23.406;2023-03-26T05:31:07;6.50;;;5.70;;
6348;SDS011;3207;42.648;23.406;2023-03-26T05:33:35;5.13;;;4.63;;
6348;SDS011;3207;42.648;23.406;2023-03-26T05:36:03;7.60;;;6.47;;
6348;SDS011;3207;42.648;23.406;2023-03-26T05:38:31;7.13;;;6.00;;
6348;SDS011;3207;42.648;23.406;2023-03-26T05:40:58;6.53;;;5.90;;
6348;SDS011;3207;42.648;23.406;2023-03-26T05:43:26;10.00;;;7.77;;
6348;SDS011;3207;42.648;23.406;2023-03-26T05:45:54;10.70;;;8.43;;
6348;SDS011;3207;42.648;23.406;2023-03-26T05:48:22;9.93;;;8.10;;
6348;SDS011;3207;42.648;23.406;2023-03-26T05:50:50;10.30;;;8.47;;
6348;SDS011;3207;42.648;23.406;2023-03-26T05:53:18;10.13;;;8.07;;
6348;SDS011;3207;42.648;23.406;2023-03-26T05:55:46;11.03;;;8.23;;
6348;SDS011;3207;42.648;23.406;2023-03-26T05:58:14;13.07;;;7.87;;
6348;SDS011;3207;42.648;23.406;2023-03-26T06:00:41;9.50;;;7.80;;
6348;SDS011;3207;42.648;23.406;2023-03-26T06:03:12;9.77;;;7.87;;
6348;SDS011;3207;42.648;23.406;2023-03-26T06:05:41;8.73;;;7.83;;
6348;SDS011;3207;42.648;23.406;2023-03-26T06:08:08;9.00;;;7.20;;
6348;SDS011;3207;42.648;23.406;2023-03-26T06:10:36;7.87;;;7.07;;
6348;SDS011;3207;42.648;23.406;2023-03-26T06:13:03;10.80;;;7.63;;
6348;SDS011;3207;42.648;23.406;2023-03-26T06:15:30;9.57;;;7.80;;
6348;SDS011;3207;42.648;23.406;2023-03-26T06:17:57;9.90;;;8.27;;
6348;SDS011;3207;42.648;23.406;2023-03-26T06:20:23;9.60;;;8.27;;
6348;SDS011;3207;42.648;23.406;2023-03-26T06:22:52;8.77;;;7.87;;
6348;SDS011;3207;42.648;23.406;2023-03-26T06:25:18;10.73;;;8.90;;
6348;SDS011;3207;42.648;23.406;2023-03-26T06:27:45;9.53;;;8.53;;
6348;SDS011;3207;42.648;23.406;2023-03-26T06:30:12;10.53;;;8.70;;
6348;SDS011;3207;42.648;23.406;2023-03-26T06:32:41;10.50;;;8.87;;
6348;SDS011;3207;42.648;23.406;2023-03-26T06:35:08;14.10;;;9.30;;
6348;SDS011;3207;42.648;23.406;2023-03-26T06:37:35;11.40;;;9.47;;
6348;SDS011;3207;42.648;23.406;2023-03-26T06:40:04;11.03;;;8.87;;
6348;SDS011;3207;42.648;23.406;2023-03-26T06:42:31;11.03;;;9.87;;
6348;SDS011;3207;42.648;23.406;2023-03-26T06:44:58;10.73;;;9.40;;
6348;SDS011;3207;42.648;23.406;2023-03-26T06:47:25;10.70;;;9.50;;
6348;SDS011;3207;42.648;23.406;2023-03-26T06:49:52;14.07;;;11.20;;
6348;SDS011;3207;42.648;23.406;2023-03-26T06:52:19;14.37;;;11.07;;
6348;SDS011;3207;42.648;23.406;2023-03-26T06:54:45;15.23;;;11.83;;
6348;SDS011;3207;42.648;23.406;2023-03-26T06:57:14;13.40;;;11.87;;
6348;SDS011;3207;42.648;23.406;2023-03-26T06:59:41;13.07;;;11.77;;
6348;SDS011;3207;42.648;23.406;2023-03-26T07:02:08;12.37;;;11.07;;
6348;SDS011;3207;42.648;23.406;2023-03-26T07:04:35;10.65;;;9.52;;
6348;SDS011;3207;42.648;23.406;2023-03-26T07:07:02;11.85;;;10.15;;
6348;SDS011;3207;42.648;23.406;2023-03-26T07:09:30;14.80;;;10.77;;
6348;SDS011;3207;42.648;23.406;2023-03-26T07:11:56;12.25;;;10.73;;
6348;SDS011;3207;42.648;23.406;2023-03-26T07:14:25;13.77;;;12.48;;
6348;SDS011;3207;42.648;23.406;2023-03-26T07:16:56;14.30;;;12.50;;
6348;SDS011;3207;42.648;23.406;2023-03-26T07:19:22;16.70;;;12.55;;
6348;SDS011;3207;42.648;23.406;2023-03-26T07:21:50;13.75;;;12.20;;
6348;SDS011;3207;42.648;23.406;2023-03-26T07:24:17;13.85;;;12.20;;
6348;SDS011;3207;42.648;23.406;2023-03-26T07:26:46;12.20;;;10.90;;
6348;SDS011;3207;42.648;23.406;2023-03-26T07:29:23;12.85;;;11.30;;
6348;SDS011;3207;42.648;23.406;2023-03-26T07:32:00;14.00;;;12.52;;
6348;SDS011;3207;42.648;23.406;2023-03-26T07:34:39;13.75;;;12.27;;
6348;SDS011;3207;42.648;23.406;2023-03-26T07:37:17;15.65;;;11.20;;
6348;SDS011;3207;42.648;23.406;2023-03-26T07:39:54;20.05;;;13.50;;
6348;SDS011;3207;42.648;23.406;2023-03-26T07:42:29;13.70;;;12.15;;
6348;SDS011;3207;42.648;23.406;2023-03-26T07:45:11;13.77;;;12.02;;
6348;SDS011;3207;42.648;23.406;2023-03-26T07:47:44;13.52;;;12.20;;
6348;SDS011;3207;42.648;23.406;2023-03-26T07:50:14;13.43;;;12.02;;
6348;SDS011;3207;42.648;23.406;2023-03-26T07:52:42;14.77;;;12.20;;
6348;SDS011;3207;42.648;23.406;2023-03-26T07:55:11;15.45;;;12.45;;
6348;SDS011;3207;42.648;23.406;2023-03-26T07:57:42;14.77;;;12.75;;
6348;SDS011;3207;42.648;23.406;2023-03-26T08:00:18;16.20;;;12.27;;
6348;SDS011;3207;42.648;23.406;2023-03-26T08:02:54;15.88;;;13.48;;
6348;SDS011;3207;42.648;23.406;2023-03-26T08:05:47;16.90;;;14.25;;
6348;SDS011;3207;42.648;23.406;2023-03-26T08:08:18;17.58;;;15.27;;
6348;SDS011;3207;42.648;23.406;2023-03-26T08:10:57;17.08;;;13.65;;
6348;SDS011;3207;42.648;23.406;2023-03-26T08:13:37;16.05;;;14.40;;
6348;SDS011;3207;42.648;23.406;2023-03-26T08:16:21;17.25;;;14.15;;
6348;SDS011;3207;42.648;23.406;2023-03-26T08:18:55;15.98;;;14.35;;
6348;SDS011;3207;42.648;23.406;2023-03-26T08:21:29;17.60;;;15.80;;
6348;SDS011;3207;42.648;23.406;2023-03-26T08:23:59;17.15;;;15.35;;
6348;SDS011;3207;42.648;23.406;2023-03-26T08:26:34;17.00;;;15.30;;
6348;SDS011;3207;42.648;23.406;2023-03-26T08:29:09;17.13;;;15.38;;
6348;SDS011;3207;42.648;23.406;2023-03-26T08:31:44;18.13;;;15.90;;
6348;SDS011;3207;42.648;23.406;2023-03-26T08:34:14;17.65;;;15.27;;
6348;SDS011;3207;42.648;23.406;2023-03-26T08:36:41;17.00;;;15.23;;
6348;SDS011;3207;42.648;23.406;2023-03-26T08:39:08;16.15;;;14.45;;
6348;SDS011;3207;42.648;23.406;2023-03-26T08:44:48;18.35;;;16.40;;
6348;SDS011;3207;42.648;23.406;2023-03-26T08:47:45;19.55;;;17.40;;
6348;SDS011;3207;42.648;23.406;2023-03-26T08:51:04;17.35;;;15.68;;
6348;SDS011;3207;42.648;23.406;2023-03-26T08:57:09;18.83;;;16.75;;
6348;SDS011;3207;42.648;23.406;2023-03-26T09:00:02;18.30;;;16.35;;
6348;SDS011;3207;42.648;23.406;2023-03-26T09:03:08;19.55;;;17.23;;
6348;SDS011;3207;42.648;23.406;2023-03-26T09:05:52;21.15;;;17.50;;
6348;SDS011;3207;42.648;23.406;2023-03-26T09:08:41;20.27;;;18.17;;
6348;SDS011;3207;42.648;23.406;2023-03-26T09:11:33;19.23;;;16.52;;
6348;SDS011;3207;42.648;23.406;2023-03-26T09:14:34;18.90;;;15.43;;
6348;SDS011;3207;42.648;23.406;2023-03-26T09:17:32;16.50;;;14.80;;
6348;SDS011;3207;42.648;23.406;2023-03-26T09:20:30;17.63;;;15.93;;
6348;SDS011;3207;42.648;23.406;2023-03-26T09:23:26;13.18;;;11.98;;
6348;SDS011;3207;42.648;23.406;2023-03-26T09:26:25;15.48;;;13.40;;
6348;SDS011;3207;42.648;23.406;2023-03-26T09:29:03;13.77;;;12.40;;
6348;SDS011;3207;42.648;23.406;2023-03-26T09:32:02;14.55;;;13.05;;
6348;SDS011;3207;42.648;23.406;2023-03-26T09:34:56;14.65;;;13.23;;
6348;SDS011;3207;42.648;23.406;2023-03-26T09:37:44;14.80;;;13.35;;
6348;SDS011;3207;42.648;23.406;2023-03-26T09:40:20;14.18;;;12.70;;
6348;SDS011;3207;42.648;23.406;2023-03-26T09:42:52;13.68;;;12.23;;
6348;SDS011;3207;42.648;23.406;2023-03-26T09:45:36;13.45;;;12.15;;
6348;SDS011;3207;42.648;23.406;2023-03-26T09:48:18;12.95;;;11.65;;
6348;SDS011;3207;42.648;23.406;2023-03-26T09:51:11;14.40;;;12.93;;
6348;SDS011;3207;42.648;23.406;2023-03-26T09:54:02;12.65;;;11.45;;
6348;SDS011;3207;42.648;23.406;2023-03-26T09:56:39;14.40;;;13.05;;
6348;SDS011;3207;42.648;23.406;2023-03-26T10:02:13;12.90;;;11.60;;
6348;SDS011;3207;42.648;23.406;2023-03-26T10:05:04;16.00;;;14.32;;
6348;SDS011;3207;42.648;23.406;2023-03-26T10:07:55;16.77;;;15.10;;
6348;SDS011;3207;42.648;23.406;2023-03-26T10:10:32;13.55;;;11.98;;
6348;SDS011;3207;42.648;23.406;2023-03-26T10:13:11;12.38;;;11.18;;
6348;SDS011;3207;42.648;23.406;2023-03-26T10:15:52;12.80;;;11.60;;
6348;SDS011;3207;42.648;23.406;2023-03-26T10:18:29;14.20;;;12.90;;
6348;SDS011;3207;42.648;23.406;2023-03-26T10:21:05;14.27;;;13.00;;
6348;SDS011;3207;42.648;23.406;2023-03-26T10:23:46;13.52;;;12.27;;
6348;SDS011;3207;42.648;23.406;2023-03-26T10:26:35;13.85;;;12.55;;
6348;SDS011;3207;42.648;23.406;2023-03-26T10:29:19;10.98;;;10.02;;
6348;SDS011;3207;42.648;23.406;2023-03-26T10:31:56;13.82;;;12.55;;
6348;SDS011;3207;42.648;23.406;2023-03-26T10:34:40;11.80;;;10.70;;
6348;SDS011;3207;42.648;23.406;2023-03-26T10:37:17;7.40;;;6.88;;
6348;SDS011;3207;42.648;23.406;2023-03-26T10:49:06;6.82;;;6.32;;
6348;SDS011;3207;42.648;23.406;2023-03-26T10:51:46;6.97;;;6.47;;
6348;SDS011;3207;42.648;23.406;2023-03-26T10:57:09;5.88;;;5.38;;
6348;SDS011;3207;42.648;23.406;2023-03-26T10:59:43;6.25;;;5.75;;
6348;SDS011;3207;42.648;23.406;2023-03-26T11:02:19;7.38;;;6.72;;
6348;SDS011;3207;42.648;23.406;2023-03-26T11:04:52;7.45;;;6.85;;
6348;SDS011;3207;42.648;23.406;2023-03-26T11:07:28;8.57;;;7.28;;
6348;SDS011;3207;42.648;23.406;2023-03-26T11:10:02;7.35;;;6.78;;
6348;SDS011;3207;42.648;23.406;2023-03-26T11:12:35;24.48;;;12.80;;
6348;SDS011;3207;42.648;23.406;2023-03-26T11:15:13;7.85;;;7.15;;
6348;SDS011;3207;42.648;23.406;2023-03-26T11:17:49;9.13;;;7.97;;
6348;SDS011;3207;42.648;23.406;2023-03-26T11:20:27;9.05;;;7.70;;
6348;SDS011;3207;42.648;23.406;2023-03-26T11:23:07;7.45;;;6.82;;
6348;SDS011;3207;42.648;23.406;2023-03-26T11:25:47;7.38;;;6.80;;
6348;SDS011;3207;42.648;23.406;2023-03-26T11:28:35;6.93;;;6.43;;
6348;SDS011;3207;42.648;23.406;2023-03-26T11:31:18;7.72;;;6.93;;
6348;SDS011;3207;42.648;23.406;2023-03-26T11:33:53;7.78;;;7.13;;
6348;SDS011;3207;42.648;23.406;2023-03-26T11:36:24;7.63;;;6.85;;
6348;SDS011;3207;42.648;23.406;2023-03-26T11:38:56;7.30;;;6.68;;
6348;SDS011;3207;42.648;23.406;2023-03-26T11:41:26;6.95;;;6.43;;
6348;SDS011;3207;42.648;23.406;2023-03-26T11:43:55;8.05;;;7.05;;
6348;SDS011;3207;42.648;23.406;2023-03-26T11:46:28;7.07;;;5.78;;
6348;SDS011;3207;42.648;23.406;2023-03-26T11:48:57;7.63;;;6.18;;
6348;SDS011;3207;42.648;23.406;2023-03-26T11:51:26;7.07;;;6.40;;
6348;SDS011;3207;42.648;23.406;2023-03-26T11:53:57;6.82;;;6.32;;
6348;SDS011;3207;42.648;23.406;2023-03-26T11:56:25;7.07;;;6.47;;
6348;SDS011;3207;42.648;23.406;2023-03-26T11:58:56;7.43;;;6.63;;
6348;SDS011;3207;42.648;23.406;2023-03-26T12:01:35;6.32;;;5.82;;
6348;SDS011;3207;42.648;23.406;2023-03-26T12:04:09;6.40;;;5.55;;
6348;SDS011;3207;42.648;23.406;2023-03-26T12:06:37;6.13;;;5.53;;
6348;SDS011;3207;42.648;23.406;2023-03-26T12:09:14;6.30;;;5.70;;
6348;SDS011;3207;42.648;23.406;2023-03-26T12:11:42;9.07;;;5.57;;
6348;SDS011;3207;42.648;23.406;2023-03-26T12:14:14;6.80;;;5.43;;
6348;SDS011;3207;42.648;23.406;2023-03-26T12:16:56;5.50;;;4.97;;
6348;SDS011;3207;42.648;23.406;2023-03-26T12:19:33;5.78;;;5.22;;
6348;SDS011;3207;42.648;23.406;2023-03-26T12:22:03;5.18;;;4.68;;
6348;SDS011;3207;42.648;23.406;2023-03-26T12:24:31;5.10;;;4.70;;
6348;SDS011;3207;42.648;23.406;2023-03-26T12:27:00;9.02;;;4.60;;
6348;SDS011;3207;42.648;23.406;2023-03-26T12:29:32;6.15;;;4.20;;
6348;SDS011;3207;42.648;23.406;2023-03-26T12:32:05;4.10;;;3.70;;
6348;SDS011;3207;42.648;23.406;2023-03-26T12:34:38;5.38;;;3.97;;
6348;SDS011;3207;42.648;23.406;2023-03-26T12:37:06;5.63;;;3.75;;
6348;SDS011;3207;42.648;23.406;2023-03-26T12:39:34;4.25;;;3.70;;
6348;SDS011;3207;42.648;23.406;2023-03-26T12:42:03;5.40;;;4.25;;
6348;SDS011;3207;42.648;23.406;2023-03-26T12:44:35;4.25;;;3.85;;
6348;SDS011;3207;42.648;23.406;2023-03-26T12:47:16;5.22;;;4.32;;
6348;SDS011;3207;42.648;23.406;2023-03-26T12:49:46;8.07;;;4.30;;
6348;SDS011;3207;42.648;23.406;2023-03-26T12:52:19;5.47;;;4.25;;
6348;SDS011;3207;42.648;23.406;2023-03-26T12:54:56;7.13;;;3.25;;
6348;SDS011;3207;42.648;23.406;2023-03-26T12:57:30;5.88;;;3.78;;
6348;SDS011;3207;42.648;23.406;2023-03-26T13:00:11;3.63;;;3.33;;
6348;SDS011;3207;42.648;23.406;2023-03-26T13:02:57;6.68;;;3.70;;
6348;SDS011;3207;42.648;23.406;2023-03-26T13:05:37;5.88;;;3.80;;
6348;SDS011;3207;42.648;23.406;2023-03-26T13:08:34;3.90;;;3.50;;
6348;SDS011;3207;42.648;23.406;2023-03-26T13:11:15;6.03;;;3.47;;
6348;SDS011;3207;42.648;23.406;2023-03-26T13:13:55;5.57;;;4.32;;
6348;SDS011;3207;42.648;23.406;2023-03-26T13:16:35;10.38;;;9.27;;
6348;SDS011;3207;42.648;23.406;2023-03-26T13:19:13;4.88;;;4.30;;
6348;SDS011;3207;42.648;23.406;2023-03-26T13:21:50;4.78;;;3.90;;
6348;SDS011;3207;42.648;23.406;2023-03-26T13:24:33;3.80;;;3.25;;
6348;SDS011;3207;42.648;23.406;2023-03-26T13:27:13;4.60;;;3.35;;
6348;SDS011;3207;42.648;23.406;2023-03-26T13:29:48;4.30;;;2.95;;
6348;SDS011;3207;42.648;23.406;2023-03-26T13:32:24;3.45;;;3.15;;
6348;SDS011;3207;42.648;23.406;2023-03-26T13:35:05;4.45;;;3.33;;
6348;SDS011;3207;42.648;23.406;2023-03-26T13:37:41;5.82;;;3.08;;
6348;SDS011;3207;42.648;23.406;2023-03-26T13:40:20;3.70;;;2.95;;
6348;SDS011;3207;42.648;23.406;2023-03-26T13:43:05;4.75;;;3.00;;
6348;SDS011;3207;42.648;23.406;2023-03-26T13:45:50;4.32;;;3.40;;
6348;SDS011;3207;42.648;23.406;2023-03-26T13:48:23;4.95;;;3.60;;
6348;SDS011;3207;42.648;23.406;2023-03-26T13:50:59;4.32;;;3.00;;
6348;SDS011;3207;42.648;23.406;2023-03-26T13:53:31;5.80;;;3.67;;
6348;SDS011;3207;42.648;23.406;2023-03-26T13:56:04;3.90;;;3.13;;
6348;SDS011;3207;42.648;23.406;2023-03-26T13:58:36;8.70;;;4.05;;
6348;SDS011;3207;42.648;23.406;2023-03-26T14:01:07;3.83;;;3.35;;
6348;SDS011;3207;42.648;23.406;2023-03-26T14:03:43;5.30;;;3.50;;
6348;SDS011;3207;42.648;23.406;2023-03-26T14:06:25;5.85;;;3.10;;
6348;SDS011;3207;42.648;23.406;2023-03-26T14:08:59;8.07;;;3.60;;
6348;SDS011;3207;42.648;23.406;2023-03-26T14:11:31;5.60;;;3.50;;
6348;SDS011;3207;42.648;23.406;2023-03-26T14:14:09;4.07;;;2.65;;
6348;SDS011;3207;42.648;23.406;2023-03-26T14:16:42;5.93;;;3.17;;
6348;SDS011;3207;42.648;23.406;2023-03-26T14:19:20;5.20;;;3.22;;
6348;SDS011;3207;42.648;23.406;2023-03-26T14:22:06;6.93;;;3.10;;
6348;SDS011;3207;42.648;23.406;2023-03-26T14:24:51;4.25;;;2.92;;
6348;SDS011;3207;42.648;23.406;2023-03-26T14:27:32;3.10;;;2.72;;
6348;SDS011;3207;42.648;23.406;2023-03-26T14:33:34;8.63;;;3.22;;
6348;SDS011;3207;42.648;23.406;2023-03-26T14:36:14;4.68;;;3.58;;
6348;SDS011;3207;42.648;23.406;2023-03-26T14:39:00;7.88;;;3.10;;
6348;SDS011;3207;42.648;23.406;2023-03-26T14:41:40;4.57;;;3.08;;
6348;SDS011;3207;42.648;23.406;2023-03-26T14:44:30;9.35;;;7.40;;
6348;SDS011;3207;42.648;23.406;2023-03-26T14:47:14;6.10;;;4.57;;
6348;SDS011;3207;42.648;23.406;2023-03-26T14:52:46;5.80;;;3.15;;
6348;SDS011;3207;42.648;23.406;2023-03-26T14:55:17;5.50;;;2.90;;
6348;SDS011;3207;42.648;23.406;2023-03-26T14:58:09;4.22;;;3.22;;
6348;SDS011;3207;42.648;23.406;2023-03-26T15:01:10;6.68;;;3.60;;
6348;SDS011;3207;42.648;23.406;2023-03-26T15:03:53;3.88;;;2.80;;
6348;SDS011;3207;42.648;23.406;2023-03-26T15:06:54;2.78;;;2.53;;
6348;SDS011;3207;42.648;23.406;2023-03-26T15:09:54;7.53;;;2.97;;
6348;SDS011;3207;42.648;23.406;2023-03-26T15:12:49;9.30;;;3.28;;
6348;SDS011;3207;42.648;23.406;2023-03-26T15:18:49;4.95;;;3.30;;
6348;SDS011;3207;42.648;23.406;2023-03-26T15:27:50;4.43;;;2.95;;
6348;SDS011;3207;42.648;23.406;2023-03-26T15:39:45;4.97;;;3.63;;
6348;SDS011;3207;42.648;23.406;2023-03-26T15:42:35;5.35;;;3.47;;
6348;SDS011;3207;42.648;23.406;2023-03-26T15:48:05;5.40;;;3.28;;
6348;SDS011;3207;42.648;23.406;2023-03-26T15:50:54;4.88;;;3.33;;
6348;SDS011;3207;42.648;23.406;2023-03-26T15:53:34;4.25;;;3.85;;
6348;SDS011;3207;42.648;23.406;2023-03-26T15:56:11;7.93;;;4.00;;
6348;SDS011;3207;42.648;23.406;2023-03-26T15:58:46;6.47;;;3.75;;
6348;SDS011;3207;42.648;23.406;2023-03-26T16:01:24;6.60;;;3.40;;
6348;SDS011;3207;42.648;23.406;2023-03-26T16:04:05;3.70;;;3.25;;
6348;SDS011;3207;42.648;23.406;2023-03-26T16:06:53;7.38;;;3.47;;
6348;SDS011;3207;42.648;23.406;2023-03-26T16:09:44;5.28;;;3.88;;
6348;SDS011;3207;42.648;23.406;2023-03-26T16:12:25;12.30;;;4.97;;
6348;SDS011;3207;42.648;23.406;2023-03-26T16:18:15;3.72;;;3.28;;
6348;SDS011;3207;42.648;23.406;2023-03-26T16:20:47;6.20;;;3.97;;
6348;SDS011;3207;42.648;23.406;2023-03-26T16:23:28;6.72;;;4.88;;